Time;durP1;ratioP1;P1;durP2;ratioP2;P2;SDS_P1;SDS_P2;PMS_P1;PMS_P2;Temp;Humidity;BMP_temperature;BMP_pressure;BME280_temperature;BME280_humidity;BME280_pressure;Samples;Min_cycle;Max_cycle;Signal;HPM_P1;HPM_P2
2021/12/02 00:01:43;;;;;;;276.88;194.32;;;;;;;24.96;33.15;100698.09;5046186;28;20083;-44
2021/12/02 00:04:11;;;;;;;280.52;193.38;;;;;;;24.98;33.24;100693.72;5045812;28;20036;-44
2021/12/02 00:06:40;;;;;;;281.02;190.32;;;;;;;25.01;33.71;100684.97;5045947;28;20107;-44
2021/12/02 00:09:08;;;;;;;287.40;196.68;;;;;;;25.01;33.24;100682.34;5045571;28;20033;-44
2021/12/02 00:11:37;;;;;;;290.55;196.27;;;;;;;24.98;33.44;100679.72;5045591;28;20505;-44
2021/12/02 00:14:10;;;;;;;290.75;196.70;;;;;;;24.94;33.66;100678.84;5045153;28;20412;-44
2021/12/02 00:16:41;;;;;;;298.17;205.10;;;;;;;24.95;33.58;100692.81;5045187;28;20051;-45
2021/12/02 00:22:01;;;;;;;290.83;203.32;;;;;;;24.94;33.45;100694.56;5038558;28;20485;-44
2021/12/02 00:24:34;;;;;;;290.80;201.60;;;;;;;24.98;33.45;100700.72;5045549;28;20056;-44
2021/12/02 00:27:06;;;;;;;293.88;200.45;;;;;;;25.00;33.46;100699.84;5027806;28;20490;-43
2021/12/02 00:29:36;;;;;;;286.30;199.65;;;;;;;25.08;33.67;100706.88;5045377;28;20390;-44
2021/12/02 00:32:07;;;;;;;295.30;204.40;;;;;;;25.01;33.44;100717.34;5045287;28;20056;-45
2021/12/02 00:34:42;;;;;;;306.30;208.77;;;;;;;24.92;33.73;100706.81;5027231;28;20127;-44
2021/12/02 00:37:10;;;;;;;295.58;209.50;;;;;;;24.97;33.45;100712.06;5045011;28;20047;-44
2021/12/02 00:39:39;;;;;;;300.23;204.02;;;;;;;24.98;33.35;100729.56;5027244;28;20033;-45
2021/12/02 00:42:10;;;;;;;294.85;202.00;;;;;;;24.95;33.45;100730.44;5027723;28;20029;-44
2021/12/02 00:44:39;;;;;;;295.20;202.20;;;;;;;25.00;33.72;100736.56;5045124;28;20475;-44
2021/12/02 00:47:09;;;;;;;309.40;208.75;;;;;;;24.95;33.67;100743.56;5044487;28;20032;-44
2021/12/02 00:49:38;;;;;;;309.52;215.32;;;;;;;24.83;33.93;100740.84;5045143;28;20031;-44
2021/12/02 00:52:07;;;;;;;325.10;216.52;;;;;;;24.84;34.07;100734.72;5044901;28;20026;-44
2021/12/02 00:54:41;;;;;;;299.77;212.63;;;;;;;24.83;34.18;100740.84;5026897;28;20119;-44
2021/12/02 00:57:12;;;;;;;292.92;204.20;;;;;;;24.94;33.31;100752.31;5045000;28;20364;-44
2021/12/02 00:59:41;;;;;;;310.05;210.70;;;;;;;24.93;33.53;100742.69;5044161;28;20033;-44
2021/12/02 01:02:10;;;;;;;304.55;209.48;;;;;;;24.91;33.67;100741.78;5045092;28;20029;-44
2021/12/02 01:04:39;;;;;;;302.05;208.40;;;;;;;24.95;33.72;100740.03;5044704;28;20364;-44
2021/12/02 01:07:08;;;;;;;323.10;215.40;;;;;;;24.95;34.00;100758.41;5044357;28;20032;-44
2021/12/02 01:09:37;;;;;;;302.33;206.63;;;;;;;24.98;33.62;100758.44;5044668;28;20036;-44
2021/12/02 01:12:06;;;;;;;314.88;212.90;;;;;;;24.95;33.92;100764.56;5029268;28;20035;-43
2021/12/02 01:14:34;;;;;;;315.02;215.98;;;;;;;25.00;33.66;100770.69;5044406;28;20555;-44
2021/12/02 01:17:03;;;;;;;298.92;208.02;;;;;;;25.02;33.81;100775.97;5044152;28;20490;-44
2021/12/02 01:19:32;;;;;;;305.65;210.60;;;;;;;24.96;33.42;100775.91;5044605;28;20028;-43
2021/12/02 01:22:02;;;;;;;298.52;207.38;;;;;;;24.87;33.82;100779.34;5044634;28;20016;-43
2021/12/02 01:24:31;;;;;;;319.85;216.55;;;;;;;24.88;33.75;100775.88;5044688;28;20057;-43
2021/12/02 01:27:00;;;;;;;313.95;217.15;;;;;;;24.86;33.75;100773.25;5026685;28;20021;-43
2021/12/02 01:29:28;;;;;;;314.63;215.52;;;;;;;24.89;33.79;100780.25;5044375;28;20072;-43
2021/12/02 01:32:02;;;;;;;306.02;210.30;;;;;;;24.88;33.62;100789.00;5025880;28;20040;-45
2021/12/02 01:34:30;;;;;;;310.25;212.93;;;;;;;24.87;33.88;100793.38;5044134;28;20040;-44
2021/12/02 01:36:59;;;;;;;306.00;214.98;;;;;;;24.87;33.82;100800.34;5044035;28;20040;-45
2021/12/02 01:39:28;;;;;;;309.17;213.40;;;;;;;24.76;34.03;100805.53;5043869;28;20060;-47
2021/12/02 01:41:59;;;;;;;319.73;218.10;;;;;;;24.72;34.15;100809.88;5044057;28;20056;-44
2021/12/02 01:44:29;;;;;;;326.10;220.15;;;;;;;24.78;34.16;100823.91;5043992;28;20375;-45
2021/12/02 01:47:00;;;;;;;306.77;213.85;;;;;;;24.79;33.97;100828.28;5043775;28;20494;-44
2021/12/02 01:49:35;;;;;;;313.40;214.20;;;;;;;24.76;33.78;100837.00;5044122;28;20086;-44
2021/12/02 01:52:05;;;;;;;320.80;220.77;;;;;;;24.71;34.04;100843.97;5043291;28;20115;-44
2021/12/02 01:54:32;;;;;;;316.67;217.52;;;;;;;24.68;34.50;100855.28;5025692;28;20344;-48
2021/12/02 01:57:07;;;;;;;321.92;221.10;;;;;;;24.68;34.46;100865.75;5043224;28;20028;-46
2021/12/02 01:59:38;;;;;;;306.42;218.27;;;;;;;24.76;34.14;100881.59;5043056;28;20047;-44
2021/12/02 02:02:09;;;;;;;315.15;216.82;;;;;;;24.73;34.20;100884.22;5043589;28;20021;-45
2021/12/02 02:04:39;;;;;;;312.25;222.38;;;;;;;24.67;34.60;100889.38;5043955;28;20033;-44
2021/12/02 02:07:17;;;;;;;308.48;215.32;;;;;;;24.69;34.56;100895.50;5009828;28;20094;-45
2021/12/02 02:09:46;;;;;;;307.83;214.55;;;;;;;24.71;34.38;100899.94;5025938;28;20111;-45
2021/12/02 02:12:15;;;;;;;326.25;217.68;;;;;;;24.76;33.94;100902.59;5043201;28;20036;-44
2021/12/02 02:14:44;;;;;;;318.30;214.93;;;;;;;24.73;34.04;100902.59;5043006;28;20074;-44
2021/12/02 02:17:40;;;;;;;315.65;221.75;;;;;;;24.66;34.24;100906.84;5042138;28;20076;-44
2021/12/02 02:20:01;;;;;;;317.25;223.02;;;;;;;24.67;34.37;100905.97;5042485;28;20050;-44
2021/12/02 02:22:30;;;;;;;322.10;220.55;;;;;;;24.72;34.02;100904.31;5043591;28;20036;-47
2021/12/02 02:24:57;;;;;;;314.75;217.18;;;;;;;24.65;34.38;100902.47;5043719;28;20025;-44
2021/12/02 02:27:26;;;;;;;323.52;223.25;;;;;;;24.69;34.49;100909.50;5025700;28;20025;-45
2021/12/02 02:29:54;;;;;;;318.10;223.85;;;;;;;24.68;34.25;100926.09;5043350;28;20033;-45
2021/12/02 02:32:27;;;;;;;311.25;222.60;;;;;;;24.70;34.49;100920.91;5008874;28;20029;-45
2021/12/02 02:34:55;;;;;;;312.75;214.43;;;;;;;24.61;34.36;100921.66;5043461;28;20090;-44
2021/12/02 02:37:24;;;;;;;335.80;223.73;;;;;;;24.65;34.33;100926.09;5025149;28;20128;-44
2021/12/02 02:39:53;;;;;;;331.42;225.90;;;;;;;24.65;34.41;100930.44;5042665;28;20036;-45
2021/12/02 02:42:23;;;;;;;315.00;219.77;;;;;;;24.75;34.10;100934.94;5025623;28;20044;-44
2021/12/02 02:44:52;;;;;;;309.30;216.13;;;;;;;24.76;34.01;100949.81;5043057;28;20132;-44
2021/12/02 02:47:25;;;;;;;321.33;213.27;;;;;;;24.74;34.33;100954.16;5043075;28;20033;-45
2021/12/02 02:49:53;;;;;;;321.15;224.40;;;;;;;24.76;33.90;100955.06;5043024;28;20106;-45
2021/12/02 02:52:22;;;;;;;319.42;217.68;;;;;;;24.72;34.49;100959.41;5042572;28;20143;-44
2021/12/02 02:54:51;;;;;;;327.50;223.52;;;;;;;24.68;34.14;100961.94;5042950;28;20494;-44
2021/12/02 02:57:23;;;;;;;330.45;227.65;;;;;;;24.72;34.31;100964.66;5025489;28;20116;-44
2021/12/02 03:00:07;;;;;;;322.70;226.43;;;;;;;24.66;34.34;100967.16;5025561;28;20063;-44
2021/12/02 03:02:49;;;;;;;318.98;225.13;;;;;;;24.67;34.46;100966.31;5027303;28;21008;-45
2021/12/02 03:05:33;;;;;;;325.90;225.13;;;;;;;24.65;34.36;100988.16;5027027;28;20044;-44
2021/12/02 03:08:12;;;;;;;325.45;223.52;;;;;;;24.67;34.71;100983.81;5042839;28;20391;-44
2021/12/02 03:10:45;;;;;;;332.77;227.30;;;;;;;24.63;34.50;100992.50;5046374;28;20395;-44
2021/12/02 03:13:35;;;;;;;327.77;221.85;;;;;;;24.69;34.44;100993.44;5029749;28;20182;-43
2021/12/02 03:18:51;;;;;;;322.98;223.80;;;;;;;24.70;34.64;101018.84;5035387;28;20051;-45
2021/12/02 03:21:21;;;;;;;341.50;228.27;;;;;;;24.67;34.14;101023.16;5046435;28;20036;-44
2021/12/02 03:23:52;;;;;;;332.73;224.98;;;;;;;24.64;34.45;101020.47;5046631;28;20029;-43
2021/12/02 03:26:20;;;;;;;317.48;221.25;;;;;;;24.74;34.46;101025.00;5047011;28;20029;-44
2021/12/02 03:28:50;;;;;;;330.25;226.27;;;;;;;24.62;34.34;101032.69;5046232;28;20078;-44
2021/12/02 03:31:19;;;;;;;324.00;225.63;;;;;;;24.58;34.48;101021.31;5046308;28;20512;-44
2021/12/02 03:33:48;;;;;;;334.05;228.85;;;;;;;24.68;34.48;101024.91;5046222;28;20316;-44
2021/12/02 03:36:18;;;;;;;320.17;223.98;;;;;;;24.57;34.27;101023.03;5046096;28;20029;-44
2021/12/02 03:38:47;;;;;;;317.20;221.50;;;;;;;24.61;34.38;101025.69;5046391;28;20025;-44
2021/12/02 03:41:16;;;;;;;328.13;224.38;;;;;;;24.57;34.31;101025.66;5046258;28;20037;-43
2021/12/02 03:43:46;;;;;;;329.05;224.80;;;;;;;24.54;34.91;101030.88;5046338;28;20037;-44
2021/12/02 03:46:16;;;;;;;331.48;222.88;;;;;;;24.56;34.73;101028.25;5046188;28;20033;-44
2021/12/02 03:48:44;;;;;;;323.42;226.55;;;;;;;24.63;34.75;101035.34;5046464;28;20056;-44
2021/12/02 03:51:12;;;;;;;328.55;228.82;;;;;;;24.53;34.70;101033.47;5046226;28;20032;-44
2021/12/02 03:53:40;;;;;;;327.23;222.90;;;;;;;24.54;34.55;101040.47;5045962;28;20040;-44
2021/12/02 03:56:10;;;;;;;342.15;232.45;;;;;;;24.57;34.99;101040.53;5045491;28;20039;-44
2021/12/02 03:58:40;;;;;;;333.48;229.95;;;;;;;24.61;34.79;101039.69;5045902;28;20029;-46
2021/12/02 04:01:09;;;;;;;334.05;228.88;;;;;;;24.61;34.37;101044.94;5045767;28;20036;-45
2021/12/02 04:03:38;;;;;;;335.48;229.98;;;;;;;24.54;34.36;101051.88;5045627;28;20508;-44
2021/12/02 04:06:07;;;;;;;319.95;225.27;;;;;;;24.53;34.90;101047.47;5046043;28;20060;-44
2021/12/02 04:16:30;;;;;;;330.63;231.45;;;;;;;24.54;34.61;101058.84;5045721;28;20040;-44
2021/12/02 04:18:58;;;;;;;329.60;229.30;;;;;;;24.48;34.70;101062.28;5045256;28;20045;-43
2021/12/02 04:21:27;;;;;;;326.45;228.30;;;;;;;24.53;34.92;101070.19;5043891;28;20098;-44
2021/12/02 04:23:56;;;;;;;343.20;236.02;;;;;;;24.41;34.84;101070.91;5045368;28;20045;-44
2021/12/02 04:26:24;;;;;;;341.08;238.40;;;;;;;24.47;35.08;101088.47;5045503;28;20029;-45
2021/12/02 04:28:53;;;;;;;331.92;230.52;;;;;;;24.46;34.76;101077.09;5045637;28;20029;-44
2021/12/02 04:31:21;;;;;;;331.35;224.43;;;;;;;24.54;34.81;101070.22;5027731;28;20083;-44
2021/12/02 04:33:50;;;;;;;338.50;226.75;;;;;;;24.58;34.54;101073.75;5045386;28;20029;-44
2021/12/02 04:36:18;;;;;;;337.80;232.65;;;;;;;24.58;34.67;101072.00;5027174;28;20045;-43
2021/12/02 04:38:47;;;;;;;332.67;227.82;;;;;;;24.55;34.39;101077.22;5044937;28;20033;-43
2021/12/02 04:41:17;;;;;;;340.90;233.52;;;;;;;24.53;34.33;101084.19;5045302;28;20060;-45
2021/12/02 04:43:45;;;;;;;321.73;229.88;;;;;;;24.53;34.32;101089.44;5044323;28;20387;-44
2021/12/02 04:46:14;;;;;;;326.23;226.88;;;;;;;24.52;34.33;101085.06;5044442;28;20027;-44
2021/12/02 04:48:42;;;;;;;324.38;227.43;;;;;;;24.47;34.42;101085.88;5043718;28;20045;-44
2021/12/02 04:51:10;;;;;;;334.13;227.00;;;;;;;24.50;34.62;101086.78;5044808;28;20827;-47
2021/12/02 04:53:39;;;;;;;336.95;229.23;;;;;;;24.44;34.82;101086.69;5044622;28;20033;-44
2021/12/02 04:56:08;;;;;;;327.20;228.18;;;;;;;24.40;34.70;101093.63;5044637;28;20032;-45
2021/12/02 04:58:36;;;;;;;330.00;227.48;;;;;;;24.50;34.55;101086.78;5044674;28;20522;-45
2021/12/02 05:01:05;;;;;;;330.85;227.45;;;;;;;24.50;34.32;101093.75;5045136;28;20123;-45
2021/12/02 05:03:33;;;;;;;334.52;224.55;;;;;;;24.57;34.42;101090.34;5044628;28;20449;-45
2021/12/02 05:06:02;;;;;;;318.77;223.65;;;;;;;24.49;34.30;101097.25;5026770;28;20934;-47
2021/12/02 05:08:30;;;;;;;321.65;221.73;;;;;;;24.37;34.61;101096.22;5044603;28;20090;-45
2021/12/02 05:10:59;;;;;;;321.50;220.90;;;;;;;24.43;34.38;101091.06;5044386;28;20025;-48
2021/12/02 05:13:28;;;;;;;321.67;224.27;;;;;;;24.38;34.62;101087.50;5044190;28;20047;-44
2021/12/02 05:15:56;;;;;;;322.65;226.27;;;;;;;24.39;34.53;101094.50;5044617;28;20394;-46
2021/12/02 05:18:25;;;;;;;332.30;225.07;;;;;;;24.35;34.72;101091.81;5044646;28;20053;-45
2021/12/02 05:20:53;;;;;;;325.20;225.30;;;;;;;24.43;34.33;101096.31;5044429;28;20451;-46
2021/12/02 05:23:22;;;;;;;321.45;222.40;;;;;;;24.39;34.88;101102.38;5044647;28;20028;-44
2021/12/02 05:25:50;;;;;;;333.90;228.75;;;;;;;24.30;34.79;101102.25;5043779;28;20088;-44
2021/12/02 05:28:19;;;;;;;328.88;219.18;;;;;;;24.32;34.81;101105.78;5044079;28;20402;-44
2021/12/02 05:30:48;;;;;;;319.65;218.23;;;;;;;24.32;34.78;101099.63;5044190;28;20032;-44
2021/12/02 05:33:17;;;;;;;322.92;223.60;;;;;;;24.37;34.71;101093.59;5026260;28;20062;-44
2021/12/02 05:35:46;;;;;;;328.77;224.48;;;;;;;24.39;34.33;101097.13;5044146;28;20037;-45
2021/12/02 05:38:15;;;;;;;336.70;228.25;;;;;;;24.33;34.86;101104.88;5044034;28;20044;-45
2021/12/02 05:40:43;;;;;;;330.55;230.82;;;;;;;24.37;34.80;101103.22;5043779;28;20036;-44
2021/12/02 05:43:12;;;;;;;327.33;231.63;;;;;;;24.35;34.83;101112.78;5043816;28;20033;-44
2021/12/02 05:45:41;;;;;;;325.17;224.90;;;;;;;24.20;34.74;101116.06;5043784;28;20572;-44
2021/12/02 05:48:09;;;;;;;334.90;227.55;;;;;;;24.23;34.62;101123.97;5044052;28;20032;-45
2021/12/02 05:50:38;;;;;;;321.85;225.70;;;;;;;24.22;34.89;101124.84;5035821;28;20024;-45
2021/12/02 05:53:06;;;;;;;334.20;228.95;;;;;;;24.18;34.61;101126.53;5043902;28;20029;-44
2021/12/02 05:55:35;;;;;;;337.35;230.57;;;;;;;24.26;34.86;101134.53;5043736;28;20033;-45
2021/12/02 05:58:04;;;;;;;321.00;225.70;;;;;;;24.28;34.55;101136.28;5043835;28;20491;-44
2021/12/02 06:00:32;;;;;;;337.13;228.85;;;;;;;24.35;34.43;101142.50;5043476;28;20032;-46
2021/12/02 06:03:01;;;;;;;333.17;229.93;;;;;;;24.33;34.61;101132.88;5026063;28;20033;-44
2021/12/02 06:05:29;;;;;;;329.73;224.25;;;;;;;24.20;34.42;101150.16;5043457;28;20033;-44
2021/12/02 06:08:00;;;;;;;320.40;224.05;;;;;;;24.07;34.67;101143.84;5043536;28;20029;-44
2021/12/02 06:10:29;;;;;;;328.90;223.82;;;;;;;24.09;34.78;101147.34;5043182;28;20090;-44
2021/12/02 06:12:58;;;;;;;329.55;230.68;;;;;;;24.15;34.89;101154.47;5043026;28;20063;-44
2021/12/02 06:15:26;;;;;;;342.35;227.30;;;;;;;24.21;34.85;101170.25;5043591;28;20486;-44
2021/12/02 06:17:55;;;;;;;329.95;224.93;;;;;;;24.17;34.46;101163.19;5043204;28;20053;-44
2021/12/02 06:20:23;;;;;;;334.20;226.50;;;;;;;24.19;34.76;101169.34;5042966;28;20025;-43
2021/12/02 06:22:52;;;;;;;340.48;231.50;;;;;;;24.25;34.31;101169.47;5043310;28;20120;-45
2021/12/02 06:27:53;;;;;;;326.67;225.05;;;;;;;24.15;34.62;101175.44;5043589;28;20033;-44
2021/12/02 06:30:23;;;;;;;337.70;230.27;;;;;;;24.15;34.77;101172.81;5042934;28;20041;-43
2021/12/02 06:32:51;;;;;;;327.25;219.50;;;;;;;24.15;34.86;101162.31;5042947;28;20032;-45
2021/12/02 06:35:20;;;;;;;330.63;227.65;;;;;;;24.11;34.82;101167.50;5043217;28;20514;-44
2021/12/02 06:37:47;;;;;;;329.40;229.40;;;;;;;24.14;34.79;101171.91;5025464;28;20117;-46
2021/12/02 06:40:16;;;;;;;333.85;227.55;;;;;;;24.15;34.56;101172.81;5025725;28;20082;-44
2021/12/02 06:42:45;;;;;;;324.48;224.68;;;;;;;24.11;34.42;101174.47;5042913;28;20106;-44
2021/12/02 06:45:13;;;;;;;315.65;224.15;;;;;;;24.10;34.79;101186.72;5028298;28;20033;-44
2021/12/02 06:47:42;;;;;;;331.27;228.77;;;;;;;24.06;34.78;101182.28;5046676;28;20029;-44
2021/12/02 06:50:16;;;;;;;320.85;226.57;;;;;;;24.08;34.76;101188.41;5047331;28;20029;-44
2021/12/02 06:52:45;;;;;;;322.70;225.82;;;;;;;24.10;34.83;101186.72;5047400;28;20021;-44
2021/12/02 06:55:14;;;;;;;326.77;221.80;;;;;;;24.15;34.81;101188.53;5046784;28;20032;-44
2021/12/02 06:57:42;;;;;;;326.38;223.20;;;;;;;24.13;34.78;101185.88;5047337;28;20072;-44
2021/12/02 07:00:13;;;;;;;330.60;220.20;;;;;;;24.13;34.29;101188.50;5031858;28;20040;-44
2021/12/02 07:02:42;;;;;;;297.85;208.38;;;;;;;24.28;34.31;101182.63;5047215;28;20029;-44
2021/12/02 07:05:13;;;;;;;288.85;198.38;;;;;;;24.09;34.09;101182.31;5046960;28;20033;-45
2021/12/02 07:07:42;;;;;;;300.98;197.98;;;;;;;24.11;34.21;101198.06;5046840;28;20040;-44
2021/12/02 07:10:14;;;;;;;302.73;200.90;;;;;;;24.20;34.27;101200.84;5046773;28;20084;-44
2021/12/02 07:12:44;;;;;;;295.98;198.35;;;;;;;24.10;34.05;101202.44;5046082;28;20040;-43
2021/12/02 07:15:17;;;;;;;284.15;199.35;;;;;;;23.97;34.37;101211.81;5045269;28;20032;-44
2021/12/02 07:17:47;;;;;;;288.55;196.77;;;;;;;24.04;34.45;101220.66;5045438;28;20060;-43
2021/12/02 07:20:15;;;;;;;298.45;201.55;;;;;;;24.07;34.16;101223.34;5046734;28;20029;-44
2021/12/02 07:22:44;;;;;;;302.48;199.07;;;;;;;24.09;34.31;101223.34;5046655;28;20029;-44
2021/12/02 07:25:12;;;;;;;289.33;198.18;;;;;;;24.15;34.20;101227.84;5046878;28;20140;-44
2021/12/02 07:27:41;;;;;;;303.17;197.05;;;;;;;24.11;34.38;101227.78;5046775;28;20032;-44
2021/12/02 07:30:10;;;;;;;288.52;190.48;;;;;;;24.16;33.75;101232.25;5046416;28;20052;-44
2021/12/02 07:32:40;;;;;;;289.48;197.18;;;;;;;24.19;33.95;101230.53;5046172;28;20190;-45
2021/12/02 07:35:12;;;;;;;279.90;189.90;;;;;;;24.25;34.00;101233.25;5046100;28;20044;-44
2021/12/02 07:37:46;;;;;;;284.25;191.65;;;;;;;24.10;34.51;101240.84;5046273;28;20086;-44
2021/12/02 07:40:16;;;;;;;291.95;196.27;;;;;;;24.28;34.05;101242.91;5046423;28;20045;-44
2021/12/02 07:42:46;;;;;;;273.23;185.88;;;;;;;24.12;33.93;101245.28;5046304;28;20045;-43
2021/12/02 07:45:15;;;;;;;270.30;179.90;;;;;;;24.10;34.25;101248.72;5046148;28;20032;-43
2021/12/02 07:47:44;;;;;;;261.15;183.15;;;;;;;24.04;34.07;101265.22;5045930;28;20021;-44
2021/12/02 07:50:13;;;;;;;270.90;184.95;;;;;;;24.09;34.11;101260.94;5046052;28;20048;-44
2021/12/02 07:52:46;;;;;;;277.00;184.38;;;;;;;24.10;33.80;101259.19;5028555;28;20558;-44
2021/12/02 07:55:14;;;;;;;287.45;186.38;;;;;;;24.11;34.25;101264.50;5045997;28;20094;-44
2021/12/02 07:57:44;;;;;;;280.00;182.85;;;;;;;24.04;33.86;101267.84;5046513;28;20116;-45
2021/12/02 08:00:15;;;;;;;260.77;174.82;;;;;;;24.03;34.01;101273.94;5045815;28;20035;-45
2021/12/02 08:02:46;;;;;;;269.42;177.98;;;;;;;24.00;34.49;101273.88;4995877;28;20044;-45
2021/12/02 08:05:14;;;;;;;252.98;172.63;;;;;;;23.94;34.61;101268.50;5046030;28;20032;-44
2021/12/02 08:07:44;;;;;;;242.95;169.68;;;;;;;24.01;34.62;101277.41;5045917;28;20021;-46
2021/12/02 08:10:14;;;;;;;263.33;178.30;;;;;;;24.01;34.51;101286.13;5045599;28;20105;-45
2021/12/02 08:12:48;;;;;;;266.65;177.15;;;;;;;24.02;34.54;101287.03;5045242;28;20028;-45
2021/12/02 08:15:20;;;;;;;256.08;174.68;;;;;;;24.10;34.15;101295.91;5045893;28;20029;-44
2021/12/02 08:17:49;;;;;;;248.73;171.45;;;;;;;24.02;34.51;101298.38;5045311;28;20140;-45
2021/12/02 08:20:18;;;;;;;255.38;177.07;;;;;;;23.93;34.80;101301.69;5028024;28;21106;-45
2021/12/02 08:22:50;;;;;;;255.30;177.98;;;;;;;23.94;34.54;101305.19;5045057;28;20049;-44
2021/12/02 08:25:21;;;;;;;259.65;175.73;;;;;;;24.00;34.63;101296.59;5045130;28;20032;-45
2021/12/02 08:27:50;;;;;;;276.55;185.35;;;;;;;23.91;35.22;101292.03;5045023;28;20040;-45
2021/12/02 08:30:22;;;;;;;269.05;177.48;;;;;;;23.85;35.20;101295.44;5027479;28;20044;-44
2021/12/02 08:32:50;;;;;;;266.60;177.07;;;;;;;23.91;34.90;101298.16;5045026;28;20024;-44
2021/12/02 08:35:19;;;;;;;266.00;179.35;;;;;;;23.73;35.14;101277.75;5045299;28;20025;-45
2021/12/02 08:37:49;;;;;;;271.77;184.43;;;;;;;24.07;34.81;101309.84;5045048;28;20040;-44
2021/12/02 08:40:20;;;;;;;273.15;178.30;;;;;;;24.05;34.90;101324.66;5045380;28;20036;-44
2021/12/02 08:42:49;;;;;;;266.25;178.45;;;;;;;23.94;35.05;101334.88;5044155;28;20414;-44
2021/12/02 08:45:18;;;;;;;266.52;177.40;;;;;;;23.95;34.95;101333.16;5044833;28;20483;-43
2021/12/02 08:47:46;;;;;;;254.98;173.30;;;;;;;23.91;34.84;101326.09;5045421;28;20033;-44
2021/12/02 08:50:17;;;;;;;247.10;169.13;;;;;;;23.83;34.68;101334.69;5027220;28;20033;-44
2021/12/02 08:52:47;;;;;;;248.88;167.98;;;;;;;23.89;34.71;101322.56;5044813;28;20036;-47
2021/12/02 08:55:16;;;;;;;253.90;167.10;;;;;;;23.92;34.53;101309.53;5045207;28;20029;-45
2021/12/02 08:57:45;;;;;;;257.83;169.98;;;;;;;23.89;34.81;101315.59;5045082;28;20147;-44
2021/12/02 09:00:15;;;;;;;252.70;171.38;;;;;;;23.81;35.08;101322.41;5045139;28;20033;-44
2021/12/02 09:02:44;;;;;;;248.30;169.85;;;;;;;23.83;35.08;101312.84;5045108;28;20682;-44
2021/12/02 09:05:13;;;;;;;274.70;173.95;;;;;;;23.92;34.88;101328.72;5044864;28;20035;-44
2021/12/02 09:07:42;;;;;;;252.73;172.35;;;;;;;23.90;34.69;101330.47;5044113;28;20136;-48
2021/12/02 09:10:10;;;;;;;254.57;170.90;;;;;;;23.92;34.74;101335.72;5044482;28;20021;-44
2021/12/02 09:12:39;;;;;;;262.88;174.10;;;;;;;24.04;34.40;101346.47;5044118;28;20024;-44
2021/12/02 09:15:08;;;;;;;254.25;170.07;;;;;;;24.00;34.33;101335.91;5044520;28;20440;-44
2021/12/02 09:17:39;;;;;;;254.57;174.82;;;;;;;23.97;34.40;101331.50;5044209;28;20059;-44
2021/12/02 09:20:09;;;;;;;258.02;174.48;;;;;;;23.95;34.64;101327.94;5044930;28;20056;-44
2021/12/02 09:22:38;;;;;;;257.02;174.68;;;;;;;23.85;34.99;101328.59;5044552;28;20064;-44
2021/12/02 09:25:08;;;;;;;250.10;171.40;;;;;;;23.88;34.43;101332.19;5044686;28;20025;-44
2021/12/02 09:27:37;;;;;;;256.45;173.90;;;;;;;23.94;34.36;101334.03;5044594;28;20040;-44
2021/12/02 09:30:08;;;;;;;252.55;174.32;;;;;;;23.89;34.60;101333.94;5044455;28;20033;-44
2021/12/02 09:32:37;;;;;;;267.92;175.52;;;;;;;23.96;34.51;101329.69;5044127;28;20039;-44
2021/12/02 09:35:06;;;;;;;249.95;172.25;;;;;;;23.88;34.42;101340.03;5025985;28;20067;-46
2021/12/02 09:37:34;;;;;;;262.02;178.90;;;;;;;23.92;34.64;101333.09;5044320;28;20028;-45
2021/12/02 09:40:05;;;;;;;263.00;184.95;;;;;;;23.90;35.03;101334.81;5044092;28;20478;-46
2021/12/02 09:42:34;;;;;;;265.95;186.98;;;;;;;23.87;34.72;101335.66;5043521;28;20064;-45
2021/12/02 09:45:04;;;;;;;258.73;181.48;;;;;;;23.92;34.64;101335.72;5043770;28;20028;-44
2021/12/02 09:47:37;;;;;;;258.63;177.95;;;;;;;23.77;34.99;101345.06;5043472;28;20104;-44
2021/12/02 09:50:18;;;;;;;270.25;184.13;;;;;;;23.88;35.07;101342.66;5044109;28;20469;-46
2021/12/02 09:52:47;;;;;;;272.90;183.48;;;;;;;23.89;35.03;101340.91;5043804;28;20394;-45
2021/12/02 09:55:36;;;;;;;259.73;176.93;;;;;;;23.91;34.57;101334.81;5043789;28;20119;-44
2021/12/02 09:58:08;;;;;;;265.70;182.38;;;;;;;23.90;34.83;101330.47;5029083;28;20091;-45
2021/12/02 10:00:40;;;;;;;273.77;185.20;;;;;;;23.91;35.04;101334.81;5043619;28;20060;-44
2021/12/02 10:06:14;;;;;;;278.50;185.52;;;;;;;23.91;34.58;101328.72;5043703;28;20032;-44
2021/12/02 10:11:49;;;;;;;301.30;195.82;;;;;;;23.85;35.31;101337.34;5043997;28;20028;-45
2021/12/02 10:14:23;;;;;;;291.15;198.60;;;;;;;23.86;35.03;101344.34;5043417;28;20087;-44
2021/12/02 10:17:05;;;;;;;291.57;195.77;;;;;;;23.81;35.21;101335.50;5043268;28;20397;-43
2021/12/02 10:19:34;;;;;;;282.50;194.18;;;;;;;23.86;35.11;101343.47;5024780;28;20423;-45
2021/12/02 10:22:06;;;;;;;295.63;205.45;;;;;;;23.81;35.43;101331.19;5043312;28;20025;-45
2021/12/02 10:24:43;;;;;;;301.35;205.90;;;;;;;23.87;35.53;101327.78;5042822;28;20493;-47
2021/12/02 10:27:12;;;;;;;293.30;198.27;;;;;;;23.93;35.01;101327.88;5043167;28;20504;-46
2021/12/02 10:29:42;;;;;;;294.10;203.45;;;;;;;23.91;35.42;101326.09;5043243;28;20044;-45
2021/12/02 10:32:14;;;;;;;290.73;197.45;;;;;;;23.98;35.30;101314.94;5043473;28;20040;-45
2021/12/02 10:35:03;;;;;;;272.05;190.38;;;;;;;24.00;35.18;101330.66;5043109;28;20474;-44
2021/12/02 10:37:34;;;;;;;281.95;190.00;;;;;;;23.96;34.92;101327.06;5043139;28;20041;-45
2021/12/02 10:40:07;;;;;;;265.55;182.20;;;;;;;23.98;35.11;101333.28;5042860;28;20382;-44
2021/12/02 10:42:40;;;;;;;249.50;169.75;;;;;;;24.01;34.54;101325.44;5043235;28;20098;-45
2021/12/02 10:45:28;;;;;;;242.18;162.40;;;;;;;23.98;34.62;101341.13;5043508;28;20138;-45
2021/12/02 10:47:57;;;;;;;252.98;171.80;;;;;;;23.97;35.03;101336.75;5043185;28;20052;-44
2021/12/02 10:50:27;;;;;;;246.38;166.15;;;;;;;24.01;34.98;101332.44;5043087;28;20492;-44
2021/12/02 10:52:56;;;;;;;222.07;155.90;;;;;;;23.98;34.82;101333.28;5042915;28;20116;-43
2021/12/02 10:55:28;;;;;;;226.98;148.57;;;;;;;23.92;34.76;101322.63;5025094;28;20087;-44
2021/12/02 10:57:59;;;;;;;205.82;141.93;;;;;;;23.99;34.62;101318.41;5043082;28;20021;-44
2021/12/02 11:00:30;;;;;;;204.52;137.05;;;;;;;24.04;34.32;101322.00;5042819;28;20060;-44
2021/12/02 11:03:01;;;;;;;199.70;134.68;;;;;;;24.09;34.21;101313.38;5042810;28;20526;-43
2021/12/02 11:05:32;;;;;;;202.07;135.13;;;;;;;24.04;34.27;101312.41;5024875;28;20076;-43
2021/12/02 11:08:06;;;;;;;207.48;137.45;;;;;;;23.94;34.43;101303.44;5042806;28;20027;-43
2021/12/02 11:10:38;;;;;;;202.48;136.55;;;;;;;24.00;34.55;101305.31;5043011;28;20110;-44
2021/12/02 11:13:07;;;;;;;186.02;126.07;;;;;;;23.94;34.16;101299.97;5042741;28;20122;-44
2021/12/02 11:15:38;;;;;;;177.45;124.65;;;;;;;24.06;33.91;101297.59;5043080;28;20052;-45
2021/12/02 11:18:10;;;;;;;189.68;123.93;;;;;;;24.03;34.13;101310.63;5034043;28;20049;-44
2021/12/02 11:20:40;;;;;;;177.63;118.88;;;;;;;23.92;34.22;101301.66;5042653;28;20032;-45
2021/12/02 11:23:30;;;;;;;167.48;114.55;;;;;;;24.00;34.09;101304.47;5042573;28;20039;-45
2021/12/02 11:26:05;;;;;;;151.50;106.45;;;;;;;23.98;34.02;101307.06;5042756;28;20115;-44
2021/12/02 11:28:37;;;;;;;165.77;110.50;;;;;;;24.09;34.01;101297.66;5043041;28;20025;-44
2021/12/02 11:31:25;;;;;;;153.90;102.85;;;;;;;24.10;33.72;101288.94;5033941;28;20114;-44